Time;durP1;ratioP1;P1;durP2;ratioP2;P2;SDS_P1;SDS_P2;PMS_P1;PMS_P2;Temp;Humidity;BMP_temperature;BMP_pressure;BME280_temperature;BME280_humidity;BME280_pressure;Samples;Min_cycle;Max_cycle;Signal;HPM_P1;HPM_P2
2023/05/25 00:01:58;;;;;;;13.68;8.07;;;;;;;16.01;84.05;94791.66;5073015;28;20159;-84
2023/05/25 00:04:25;;;;;;;15.02;7.25;;;;;;;15.69;84.49;94751.69;5071120;28;20171;-84
2023/05/25 00:06:52;;;;;;;15.07;6.90;;;;;;;15.58;84.58;94735.84;5072705;28;20619;-84
2023/05/25 00:09:17;;;;;;;14.25;7.28;;;;;;;15.89;84.83;94803.44;5062495;28;20190;-84
2023/05/25 00:11:44;;;;;;;14.57;6.82;;;;;;;15.82;84.91;94793.00;5061058;28;20225;-84
2023/05/25 00:14:09;;;;;;;12.15;7.97;;;;;;;15.82;85.48;94804.44;5056549;28;20618;-84
2023/05/25 00:16:39;;;;;;;14.68;6.75;;;;;;;15.82;85.55;94809.75;5055590;28;20163;-84
2023/05/25 00:19:05;;;;;;;13.30;7.43;;;;;;;15.37;85.00;94732.91;5053040;28;20638;-84
2023/05/25 00:21:33;;;;;;;16.23;7.18;;;;;;;15.78;85.10;94802.50;5052165;28;20185;-84
2023/05/25 00:23:59;;;;;;;11.65;6.50;;;;;;;15.75;85.16;94798.47;5052183;28;20159;-84
2023/05/25 00:26:25;;;;;;;9.38;6.05;;;;;;;15.73;85.30;94802.44;5052137;28;20229;-84
2023/05/25 00:28:50;;;;;;;10.38;6.80;;;;;;;15.31;85.75;94743.66;5052348;28;20183;-85
2023/05/25 00:31:16;;;;;;;28.58;7.47;;;;;;;15.25;85.75;94749.94;5052078;28;20159;-85
2023/05/25 00:33:41;;;;;;;11.95;6.15;;;;;;;15.55;86.04;94795.53;5050735;28;20252;-85
2023/05/25 00:36:07;;;;;;;8.60;7.07;;;;;;;15.06;86.42;94739.56;5052284;28;20165;-85
2023/05/25 00:38:33;;;;;;;17.55;7.25;;;;;;;15.34;87.09;94802.34;5050663;28;20901;-85
2023/05/25 00:40:58;;;;;;;12.27;6.65;;;;;;;15.34;87.55;94809.50;5050649;28;20203;-85
2023/05/25 00:43:24;;;;;;;11.55;6.28;;;;;;;15.29;87.51;94810.22;5052259;28;20152;-85
2023/05/25 00:45:52;;;;;;;10.83;7.50;;;;;;;15.18;87.53;94791.72;5051474;28;20478;-84
2023/05/25 00:48:18;;;;;;;9.70;6.65;;;;;;;15.33;87.62;94811.34;5050518;28;20408;-85
2023/05/25 00:50:44;;;;;;;9.50;6.25;;;;;;;15.26;87.25;94804.59;5057285;28;20199;-85
2023/05/25 00:53:11;;;;;;;11.98;7.05;;;;;;;15.18;87.56;94800.50;5065144;28;20233;-85
2023/05/25 00:55:58;;;;;;;9.30;6.90;;;;;;;14.93;87.45;94763.75;5064242;28;20423;-85
2023/05/25 00:58:29;;;;;;;10.73;6.45;;;;;;;14.89;87.88;94772.41;5064738;28;20254;-84
2023/05/25 01:00:57;;;;;;;8.85;6.60;;;;;;;15.12;87.78;94808.59;5054617;28;20232;-84
2023/05/25 01:03:26;;;;;;;10.35;5.50;;;;;;;15.13;87.75;94804.91;5056356;28;20158;-84
2023/05/25 01:05:53;;;;;;;8.02;6.10;;;;;;;15.20;87.56;94826.78;5055761;28;20256;-84
2023/05/25 01:08:21;;;;;;;8.40;5.97;;;;;;;15.10;87.93;94806.19;5054645;28;20198;-84
2023/05/25 01:10:52;;;;;;;9.23;6.43;;;;;;;15.04;87.32;94807.16;5053921;28;20423;-84
2023/05/25 01:13:19;;;;;;;9.82;6.80;;;;;;;14.88;87.93;94797.31;5054661;28;20411;-84
2023/05/25 01:15:46;;;;;;;10.00;6.55;;;;;;;15.07;87.22;94825.22;5055584;28;20166;-84
2023/05/25 01:18:16;;;;;;;9.05;6.22;;;;;;;14.99;87.48;94815.81;5055491;28;20304;-84
2023/05/25 01:20:58;;;;;;;8.52;5.75;;;;;;;15.00;87.56;94824.56;5054251;28;20163;-85
2023/05/25 01:23:29;;;;;;;14.35;6.13;;;;;;;14.89;87.87;94809.53;5055471;28;20164;-85
2023/05/25 01:25:58;;;;;;;9.77;5.45;;;;;;;14.70;88.10;94772.63;5054272;28;20167;-85
2023/05/25 01:28:34;;;;;;;7.15;5.68;;;;;;;14.54;88.10;94746.91;5055391;28;20609;-85
2023/05/25 01:31:00;;;;;;;8.93;6.07;;;;;;;14.60;88.16;94764.53;5055341;28;20637;-85
2023/05/25 01:33:27;;;;;;;7.43;5.80;;;;;;;14.44;88.97;94759.19;5054046;28;20171;-85
2023/05/25 01:35:53;;;;;;;10.05;5.85;;;;;;;14.77;88.81;94799.00;5069250;28;20608;-85
2023/05/25 01:38:18;;;;;;;9.02;5.57;;;;;;;14.59;88.88;94772.69;5058594;28;20179;-85
2023/05/25 01:40:44;;;;;;;8.95;6.93;;;;;;;14.89;88.59;94799.72;5064772;28;20167;-85
2023/05/25 01:43:09;;;;;;;10.48;5.65;;;;;;;14.90;88.10;94797.88;5061618;28;20565;-85
2023/05/25 01:45:35;;;;;;;7.07;5.40;;;;;;;14.60;87.98;94747.81;5055043;28;20181;-84
2023/05/25 01:48:28;;;;;;;8.90;6.53;;;;;;;14.84;88.00;94789.03;5053740;28;20171;-84
2023/05/25 01:51:01;;;;;;;7.60;6.07;;;;;;;14.61;88.39;94752.88;5054849;28;20266;-84
2023/05/25 01:53:42;;;;;;;9.98;5.45;;;;;;;14.75;88.40;94777.22;5055178;28;20999;-84
2023/05/25 01:56:10;;;;;;;9.80;5.70;;;;;;;14.72;88.22;94772.38;5054805;28;20163;-84
2023/05/25 01:58:40;;;;;;;9.02;5.80;;;;;;;14.75;88.52;94792.31;5054793;28;20174;-83
2023/05/25 02:01:08;;;;;;;8.23;6.03;;;;;;;14.73;88.90;94795.19;5055343;28;20178;-85
2023/05/25 02:03:34;;;;;;;8.70;5.65;;;;;;;14.52;88.79;94762.25;5053465;28;20587;-84
2023/05/25 02:06:00;;;;;;;7.18;5.68;;;;;;;14.75;88.46;94798.44;5052123;28;20209;-85
2023/05/25 02:08:25;;;;;;;8.07;5.75;;;;;;;14.44;88.55;94756.53;5054908;28;20171;-84
2023/05/25 02:10:50;;;;;;;9.15;6.05;;;;;;;14.38;88.47;94755.59;5054351;28;20214;-84
2023/05/25 02:13:16;;;;;;;8.10;5.25;;;;;;;14.49;88.32;94769.84;5053520;28;20265;-84
2023/05/25 02:15:41;;;;;;;11.27;6.70;;;;;;;14.45;88.58;94768.72;5055038;28;20162;-84
2023/05/25 02:18:07;;;;;;;73.13;35.53;;;;;;;14.70;88.31;94817.66;5060294;28;20178;-85
2023/05/25 02:20:33;;;;;;;57.50;28.20;;;;;;;14.28;88.22;94755.38;5056388;28;20186;-85
2023/05/25 02:22:58;;;;;;;72.85;35.60;;;;;;;14.16;88.73;94752.78;5055674;28;20227;-85
2023/05/25 02:25:23;;;;;;;57.45;30.80;;;;;;;14.17;88.90;94754.41;5058044;28;20171;-85
2023/05/25 02:27:49;;;;;;;70.63;38.53;;;;;;;14.24;88.57;94775.44;5068919;28;20421;-85
2023/05/25 02:30:15;;;;;;;53.15;27.90;;;;;;;14.11;88.86;94760.63;5074113;28;20197;-85
2023/05/25 02:32:40;;;;;;;33.67;21.33;;;;;;;14.36;89.22;94816.72;5071951;28;20505;-85
2023/05/25 02:35:06;;;;;;;32.03;17.92;;;;;;;14.41;89.18;94828.50;5074328;28;20292;-84
2023/05/25 02:37:32;;;;;;;34.30;19.65;;;;;;;14.05;89.40;94788.03;5074258;28;20770;-84
2023/05/25 02:39:57;;;;;;;34.20;20.33;;;;;;;14.25;89.70;94835.31;5073986;28;20689;-85
2023/05/25 02:42:23;;;;;;;44.88;23.10;;;;;;;13.96;90.42;94806.13;5074232;28;20159;-84
2023/05/25 02:44:48;;;;;;;48.92;22.38;;;;;;;13.86;90.32;94789.22;5072684;28;20253;-87
2023/05/25 02:47:15;;;;;;;43.58;23.80;;;;;;;14.25;90.04;94844.06;5072620;28;20688;-83
2023/05/25 02:49:40;;;;;;;40.38;22.55;;;;;;;14.23;89.97;94830.25;5073705;28;20178;-83
2023/05/25 02:52:06;;;;;;;21.58;12.95;;;;;;;14.26;90.08;94850.16;5073955;28;20170;-83
2023/05/25 02:54:31;;;;;;;15.73;10.33;;;;;;;13.79;90.49;94796.47;5072787;28;20488;-82
2023/05/25 02:56:56;;;;;;;13.77;9.70;;;;;;;13.95;91.75;94849.50;5072829;28;20824;-83
2023/05/25 02:59:23;;;;;;;18.63;10.07;;;;;;;13.63;91.58;94784.75;5073846;28;20177;-83
2023/05/25 03:01:49;;;;;;;18.75;10.23;;;;;;;14.05;90.90;94829.59;5073650;28;20175;-82
2023/05/25 03:04:14;;;;;;;27.52;17.90;;;;;;;14.22;90.89;94847.16;5061101;28;20185;-82
2023/05/25 03:06:40;;;;;;;28.27;16.83;;;;;;;14.13;90.83;94834.53;5064283;28;20183;-82
2023/05/25 03:09:06;;;;;;;34.33;20.20;;;;;;;14.28;90.94;94851.53;5059800;28;20202;-82
2023/05/25 03:11:31;;;;;;;18.10;9.38;;;;;;;14.30;90.21;94856.59;5054434;28;20223;-83
2023/05/25 03:13:56;;;;;;;15.15;9.00;;;;;;;14.08;89.67;94824.63;5053402;28;20162;-83
2023/05/25 03:16:22;;;;;;;23.42;12.10;;;;;;;14.26;89.80;94858.91;5052977;28;20174;-82
2023/05/25 03:18:48;;;;;;;24.58;14.55;;;;;;;14.08;89.87;94814.06;5052533;28;20179;-82
2023/05/25 03:21:13;;;;;;;15.75;9.77;;;;;;;14.39;89.94;94859.72;5053210;28;20308;-83
2023/05/25 03:23:38;;;;;;;22.63;12.07;;;;;;;14.36;90.36;94839.75;5053134;28;20634;-88
2023/05/25 03:26:04;;;;;;;18.08;10.80;;;;;;;14.15;90.44;94790.09;5051897;28;20619;-89
2023/05/25 03:28:29;;;;;;;16.52;9.07;;;;;;;14.15;89.91;94788.25;5053127;28;20254;-89
2023/05/25 03:30:56;;;;;;;14.55;10.27;;;;;;;14.38;89.74;94823.63;5051789;28;20191;-83
2023/05/25 03:33:21;;;;;;;30.17;15.57;;;;;;;14.36;89.68;94811.44;5052992;28;20202;-86
2023/05/25 03:35:47;;;;;;;21.55;11.75;;;;;;;14.43;89.09;94803.41;5052928;28;20769;-86
2023/05/25 03:38:13;;;;;;;25.40;12.65;;;;;;;14.49;89.18;94818.34;5052936;28;20166;-86
2023/05/25 03:40:38;;;;;;;15.50;10.35;;;;;;;14.93;88.95;94869.78;5051501;28;20199;-86
2023/05/25 03:43:04;;;;;;;14.00;8.48;;;;;;;14.61;88.48;94805.88;5051436;28;20642;-87
2023/05/25 03:45:29;;;;;;;16.38;7.47;;;;;;;14.67;87.60;94812.88;5057177;28;20179;-87
2023/05/25 03:47:55;;;;;;;21.83;8.18;;;;;;;14.79;86.96;94818.09;5066323;28;20182;-87
2023/05/25 03:50:20;;;;;;;13.98;7.43;;;;;;;14.88;87.34;94815.88;5065778;28;20187;-87
2023/05/25 03:52:46;;;;;;;16.80;7.45;;;;;;;14.99;87.51;94820.31;5057248;28;20178;-86
2023/05/25 03:55:13;;;;;;;14.63;7.97;;;;;;;15.10;87.58;94832.72;5070544;28;20184;-86
2023/05/25 03:57:39;;;;;;;15.75;7.40;;;;;;;15.18;87.31;94829.66;5072471;28;20174;-87
2023/05/25 04:00:07;;;;;;;12.20;7.10;;;;;;;15.64;86.71;94878.19;5071199;28;20163;-86
2023/05/25 04:02:33;;;;;;;19.20;7.68;;;;;;;15.38;85.65;94824.69;5072454;28;20258;-87
2023/05/25 04:04:58;;;;;;;15.13;7.43;;;;;;;15.77;85.64;94857.44;5071162;28;20178;-87
2023/05/25 04:07:26;;;;;;;12.73;6.93;;;;;;;15.92;84.94;94851.53;5071337;28;20560;-87
2023/05/25 04:09:52;;;;;;;14.32;6.72;;;;;;;15.73;84.63;94794.47;5070911;28;20210;-87
2023/05/25 04:12:17;;;;;;;10.55;5.70;;;;;;;16.50;82.63;94890.06;5072317;28;20786;-88
2023/05/25 04:14:42;;;;;;;9.65;6.32;;;;;;;16.70;82.38;94897.50;5072306;28;20162;-87
2023/05/25 04:17:08;;;;;;;12.23;5.97;;;;;;;16.57;82.78;94848.16;5072319;28;20172;-87
2023/05/25 04:19:34;;;;;;;11.27;6.70;;;;;;;17.11;82.96;94896.13;5072636;28;20158;-87
2023/05/25 04:21:59;;;;;;;10.43;6.38;;;;;;;17.16;81.82;94872.22;5072329;28;20220;-87
2023/05/25 04:24:25;;;;;;;15.68;6.13;;;;;;;17.22;79.75;94860.56;5072267;28;20259;-85
2023/05/25 04:26:50;;;;;;;8.63;5.55;;;;;;;17.35;78.79;94860.16;5072537;28;20162;-89
2023/05/25 04:29:16;;;;;;;8.57;5.28;;;;;;;17.77;78.28;94904.75;5070230;28;20190;-84
2023/05/25 04:31:44;;;;;;;10.02;4.82;;;;;;;17.67;79.31;94874.31;5060831;28;20194;-85
2023/05/25 04:34:10;;;;;;;7.00;5.28;;;;;;;17.97;77.88;94897.72;5060613;28;20175;-85
2023/05/25 04:36:37;;;;;;;18.65;5.65;;;;;;;17.97;77.46;94889.72;5051810;28;20170;-84
2023/05/25 04:39:06;;;;;;;15.18;6.80;;;;;;;17.78;75.72;94874.41;5051803;28;20167;-84
2023/05/25 04:41:32;;;;;;;10.57;5.45;;;;;;;18.04;77.51;94910.81;5051804;28;20155;-84
2023/05/25 04:43:58;;;;;;;11.00;7.32;;;;;;;18.30;78.14;94928.59;5051967;28;20198;-85
2023/05/25 04:46:24;;;;;;;7.82;5.88;;;;;;;18.32;76.99;94905.16;5051852;28;20611;-85
2023/05/25 04:48:49;;;;;;;11.18;5.95;;;;;;;18.18;75.99;94857.88;5051873;28;20155;-84
2023/05/25 04:51:15;;;;;;;16.73;6.38;;;;;;;18.50;75.51;94873.78;5051844;28;20598;-84
2023/05/25 04:53:40;;;;;;;17.40;7.03;;;;;;;19.00;73.83;94931.91;5052088;28;20178;-84
2023/05/25 04:56:06;;;;;;;16.40;8.30;;;;;;;19.01;72.60;94872.94;5051885;28;20170;-84
2023/05/25 04:58:32;;;;;;;16.70;7.07;;;;;;;19.76;71.81;94908.88;5051793;28;20179;-85
2023/05/25 05:00:58;;;;;;;17.90;8.63;;;;;;;19.94;70.39;94832.72;5060598;28;20178;-85
2023/05/25 05:03:23;;;;;;;8.60;6.55;;;;;;;21.10;66.80;94919.91;5059574;28;20190;-85
2023/05/25 05:05:49;;;;;;;10.25;6.18;;;;;;;21.53;64.97;94904.16;5061554;28;20177;-85
2023/05/25 05:08:14;;;;;;;12.60;6.65;;;;;;;21.71;62.69;94874.78;5064079;28;20198;-85
2023/05/25 05:10:39;;;;;;;9.43;6.20;;;;;;;22.40;62.38;94919.28;5070275;28;20220;-86
2023/05/25 05:13:05;;;;;;;9.40;6.28;;;;;;;22.42;59.40;94887.59;5071977;28;20642;-86
2023/05/25 05:15:30;;;;;;;13.32;6.00;;;;;;;22.92;58.93;94893.53;5071725;28;20178;-86
2023/05/25 05:17:56;;;;;;;11.55;6.65;;;;;;;23.35;56.90;94902.41;5071600;28;20179;-86
2023/05/25 05:20:21;;;;;;;11.88;7.88;;;;;;;23.66;56.30;94881.28;5071994;28;20634;-86
2023/05/25 05:22:47;;;;;;;11.60;6.35;;;;;;;24.31;55.57;94884.00;5072187;28;20643;-85
2023/05/25 05:25:12;;;;;;;10.23;5.60;;;;;;;24.85;54.14;94869.78;5071400;28;20703;-86
2023/05/25 05:27:39;;;;;;;17.08;6.20;;;;;;;25.60;53.01;94887.41;5071534;28;20189;-86
2023/05/25 05:30:06;;;;;;;12.77;6.95;;;;;;;25.91;50.77;94899.09;5070167;28;20226;-86
2023/05/25 05:32:31;;;;;;;10.85;6.30;;;;;;;25.83;50.54;94892.53;5071827;28;20183;-86
2023/05/25 05:34:57;;;;;;;14.27;7.57;;;;;;;26.48;50.36;94912.81;5071836;28;20194;-86
2023/05/25 05:37:22;;;;;;;20.40;13.65;;;;;;;26.74;48.38;94915.66;5053628;28;20186;-85
2023/05/25 05:39:48;;;;;;;11.35;8.23;;;;;;;26.77;49.62;94877.22;5072199;28;20212;-86
2023/05/25 05:42:13;;;;;;;9.77;6.82;;;;;;;27.06;49.16;94876.72;5075087;28;20558;-86
2023/05/25 05:44:39;;;;;;;7.75;5.43;;;;;;;27.69;48.14;94939.22;5073958;28;20170;-86
2023/05/25 05:47:05;;;;;;;7.45;5.03;;;;;;;27.87;47.93;94937.34;5075047;28;20185;-86
2023/05/25 05:49:31;;;;;;;11.43;5.25;;;;;;;28.04;47.32;94920.28;5075014;28;20182;-87
2023/05/25 05:51:57;;;;;;;10.85;6.35;;;;;;;28.13;45.84;94938.13;5075260;28;20181;-86
2023/05/25 05:54:22;;;;;;;8.45;5.07;;;;;;;27.61;47.58;94904.84;5073749;28;20192;-86
2023/05/25 05:56:49;;;;;;;11.73;6.95;;;;;;;27.30;47.76;94880.59;5073596;28;20178;-85
2023/05/25 05:59:14;;;;;;;13.57;7.47;;;;;;;27.30;47.93;94902.22;5074869;28;20159;-88
2023/05/25 06:01:41;;;;;;;10.32;4.97;;;;;;;27.66;47.38;94942.56;5074816;28;20176;-85
2023/05/25 06:04:07;;;;;;;10.05;5.60;;;;;;;27.32;47.80;94883.00;5075280;28;20182;-86
2023/05/25 06:06:36;;;;;;;6.95;5.47;;;;;;;27.80;47.15;94937.00;5074878;28;20630;-86
2023/05/25 06:09:03;;;;;;;10.60;4.90;;;;;;;27.83;47.04;94935.59;5074526;28;20668;-86
2023/05/25 06:11:28;;;;;;;10.00;5.03;;;;;;;27.26;45.90;94900.44;5073215;28;20234;-86
2023/05/25 06:13:54;;;;;;;8.13;4.72;;;;;;;26.89;48.09;94880.94;5074546;28;20166;-86
2023/05/25 06:16:19;;;;;;;10.20;5.35;;;;;;;26.55;48.21;94894.28;5075120;28;20170;-85
2023/05/25 06:18:45;;;;;;;7.88;4.50;;;;;;;26.47;49.98;94897.72;5073224;28;20170;-86
2023/05/25 06:21:10;;;;;;;10.90;5.22;;;;;;;26.68;51.24;94893.41;5074431;28;20162;-86
2023/05/25 06:23:35;;;;;;;10.13;4.57;;;;;;;26.72;47.94;94888.97;5073087;28;20181;-86
2023/05/25 06:26:04;;;;;;;9.00;4.28;;;;;;;26.89;49.28;94907.16;5074083;28;20198;-86
2023/05/25 06:28:30;;;;;;;7.43;4.05;;;;;;;27.05;49.46;94913.75;5073086;28;20174;-86
2023/05/25 06:30:55;;;;;;;7.03;4.53;;;;;;;27.22;49.11;94913.81;5072995;28;20289;-86
2023/05/25 06:33:22;;;;;;;5.55;4.60;;;;;;;27.07;47.92;94930.44;5073979;28;20186;-86
2023/05/25 06:35:47;;;;;;;8.30;5.18;;;;;;;27.06;49.46;94925.38;5074443;28;20178;-86
2023/05/25 06:38:12;;;;;;;6.88;4.47;;;;;;;27.23;50.71;94937.03;5072935;28;20166;-85
2023/05/25 06:40:38;;;;;;;7.50;5.05;;;;;;;27.25;50.23;94905.06;5072821;28;20701;-87
2023/05/25 06:43:03;;;;;;;10.68;4.97;;;;;;;27.46;51.48;94896.34;5065007;28;20612;-87
2023/05/25 06:45:28;;;;;;;9.10;4.40;;;;;;;27.59;49.52;94912.47;5065033;28;20721;-87
2023/05/25 06:47:54;;;;;;;9.38;4.57;;;;;;;27.39;50.38;94889.53;5064886;28;20167;-86
2023/05/25 06:50:20;;;;;;;7.00;4.47;;;;;;;27.19;50.02;94898.22;5057282;28;20207;-86
2023/05/25 06:52:45;;;;;;;8.77;5.45;;;;;;;27.33;50.70;94900.81;5054218;28;20178;-86
2023/05/25 06:55:11;;;;;;;11.35;4.20;;;;;;;27.41;50.62;94894.63;5054586;28;20171;-92
2023/05/25 06:57:37;;;;;;;5.57;4.28;;;;;;;27.57;50.72;94898.47;5053215;28;20262;-89
2023/05/25 07:00:06;;;;;;;13.43;4.93;;;;;;;27.82;49.93;94909.63;5053850;28;21084;-84
2023/05/25 07:02:31;;;;;;;7.63;4.93;;;;;;;27.93;49.42;94946.13;5052341;28;20178;-83
2023/05/25 07:04:57;;;;;;;7.15;4.05;;;;;;;27.62;49.36;94927.28;5054165;28;20159;-84
2023/05/25 07:07:22;;;;;;;8.00;4.55;;;;;;;27.49;50.86;94928.19;5053905;28;20174;-84
2023/05/25 07:09:47;;;;;;;8.57;4.47;;;;;;;27.50;50.50;94949.53;5053922;28;20203;-84
2023/05/25 07:12:13;;;;;;;7.13;4.47;;;;;;;27.13;52.13;94888.66;5053368;28;20261;-83
2023/05/25 07:14:38;;;;;;;9.52;5.22;;;;;;;27.12;51.04;94911.41;5053719;28;20213;-84
2023/05/25 07:17:04;;;;;;;6.57;4.45;;;;;;;27.07;52.46;94935.84;5053371;28;20220;-85
2023/05/25 07:19:30;;;;;;;8.10;4.10;;;;;;;26.76;53.56;94898.03;5053617;28;20556;-85
2023/05/25 07:21:55;;;;;;;6.82;4.22;;;;;;;26.76;54.49;94881.81;5053594;28;20198;-85
2023/05/25 07:24:20;;;;;;;8.32;4.72;;;;;;;26.90;54.03;94908.72;5054051;28;20175;-85
2023/05/25 07:26:47;;;;;;;8.88;3.92;;;;;;;26.96;53.83;94929.94;5058146;28;20171;-86
2023/05/25 07:29:12;;;;;;;5.20;3.72;;;;;;;26.84;53.46;94920.78;5057957;28;20224;-88
2023/05/25 07:31:37;;;;;;;13.68;3.88;;;;;;;26.94;54.51;94896.22;5066621;28;20556;-86
2023/05/25 07:34:03;;;;;;;6.45;3.97;;;;;;;27.52;55.19;94939.16;5057635;28;20198;-86
2023/05/25 07:36:35;;;;;;;7.55;3.67;;;;;;;27.68;52.00;94907.06;5072806;28;20185;-85
2023/05/25 07:39:00;;;;;;;6.03;3.65;;;;;;;27.85;49.70;94917.91;5071929;28;20170;-93
2023/05/25 07:41:26;;;;;;;10.18;4.28;;;;;;;27.51;48.77;94888.88;5052160;28;20163;-91
2023/05/25 07:43:51;;;;;;;5.70;3.20;;;;;;;27.49;51.33;94920.88;5053514;28;20175;-89
2023/05/25 07:46:19;;;;;;;8.07;4.03;;;;;;;27.08;51.80;94893.41;5051940;28;20191;-84
2023/05/25 07:48:45;;;;;;;7.28;3.40;;;;;;;26.63;52.27;94878.13;5053021;28;20162;-88
2023/05/25 07:51:10;;;;;;;10.05;3.58;;;;;;;26.34;49.99;94921.00;5051340;28;20175;-91
2023/05/25 07:53:36;;;;;;;5.20;3.83;;;;;;;25.86;50.83;94934.25;5051594;28;20221;-90
2023/05/25 07:56:02;;;;;;;11.82;5.28;;;;;;;25.30;52.63;94919.28;5050188;28;20573;-89
2023/05/25 07:58:27;;;;;;;16.08;5.70;;;;;;;24.95;55.27;94915.41;5065132;28;20178;-91
2023/05/25 08:00:52;;;;;;;12.88;6.15;;;;;;;24.40;55.14;94890.28;5055892;28;20185;-89
2023/05/25 08:03:20;;;;;;;12.27;4.90;;;;;;;24.03;55.80;94889.31;5062799;28;20244;-90
2023/05/25 08:05:46;;;;;;;7.05;4.45;;;;;;;23.56;56.37;94929.81;5055900;28;20638;-91
2023/05/25 08:08:13;;;;;;;6.05;2.78;;;;;;;23.12;58.29;94912.09;5052700;28;20178;-91
2023/05/25 08:10:38;;;;;;;6.93;3.03;;;;;;;22.85;58.60;94901.94;5068204;28;20251;-91
2023/05/25 08:13:03;;;;;;;12.25;5.13;;;;;;;22.66;59.84;94906.41;5071227;28;20301;-91
2023/05/25 08:15:29;;;;;;;13.70;6.18;;;;;;;22.76;60.86;94957.34;5064936;28;20621;-86
2023/05/25 08:17:55;;;;;;;8.52;3.63;;;;;;;22.50;59.77;94947.91;5061387;28;20175;-88
2023/05/25 08:20:20;;;;;;;3.97;2.70;;;;;;;22.05;58.83;94925.78;5051449;28;20646;-92
2023/05/25 08:22:46;;;;;;;12.90;4.00;;;;;;;21.92;59.40;94953.19;5051818;28;20171;-92
2023/05/25 08:25:11;;;;;;;11.30;2.78;;;;;;;21.31;58.61;94926.78;5051635;28;20212;-92
2023/05/25 08:27:36;;;;;;;22.52;5.93;;;;;;;20.94;60.63;94937.06;5051508;28;20174;-93
2023/05/25 08:30:04;;;;;;;4.60;2.80;;;;;;;20.92;60.86;94968.69;5050583;28;20657;-84
2023/05/25 08:32:30;;;;;;;43.05;9.13;;;;;;;20.43;63.01;94939.88;5034760;28;20191;-87
2023/05/25 08:34:55;;;;;;;47.90;9.43;;;;;;;20.60;64.65;95009.13;5030938;28;20191;-84
2023/05/25 08:37:22;;;;;;;37.35;9.23;;;;;;;20.09;67.85;94970.88;5031886;28;20237;-87
2023/05/25 08:39:47;;;;;;;7.95;4.50;;;;;;;19.56;70.31;94938.22;5035729;28;20497;-82
2023/05/25 08:42:13;;;;;;;7.90;4.30;;;;;;;19.08;72.44;94939.41;5061787;28;20962;-84
2023/05/25 08:44:38;;;;;;;6.47;4.05;;;;;;;19.17;73.48;94976.03;5061676;28;20428;-84
2023/05/25 08:47:07;;;;;;;7.13;3.83;;;;;;;18.94;73.47;94938.31;5060638;28;20422;-83
2023/05/25 08:49:37;;;;;;;5.70;3.40;;;;;;;19.33;73.08;95006.25;5053478;28;20525;-82
2023/05/25 08:52:04;;;;;;;5.63;3.80;;;;;;;19.21;73.29;95005.66;5059844;28;20417;-86
2023/05/25 08:54:36;;;;;;;4.63;3.00;;;;;;;18.75;72.42;95002.75;5062973;28;20610;-82
2023/05/25 08:57:13;;;;;;;7.40;3.38;;;;;;;18.62;74.06;95010.41;5045542;28;20502;-84
2023/05/25 08:59:53;;;;;;;7.00;4.05;;;;;;;18.61;75.47;95022.94;5065063;28;20829;-84
2023/05/25 09:02:40;;;;;;;6.18;2.95;;;;;;;18.60;72.94;95025.84;5062144;28;20171;-83
2023/05/25 09:05:07;;;;;;;6.77;3.63;;;;;;;18.48;74.02;95034.00;5061482;28;20417;-82
2023/05/25 09:07:33;;;;;;;9.88;3.97;;;;;;;18.44;75.04;95023.03;5061104;28;20637;-87
2023/05/25 09:10:00;;;;;;;6.95;3.58;;;;;;;18.22;75.36;94981.56;5062997;28;20213;-86
2023/05/25 09:12:29;;;;;;;4.88;3.60;;;;;;;18.46;75.31;95022.78;5058630;28;20227;-89
2023/05/25 09:14:54;;;;;;;6.88;4.13;;;;;;;18.60;75.49;95044.50;5067227;28;20189;-85
2023/05/25 09:17:20;;;;;;;8.80;4.82;;;;;;;18.63;74.64;95042.16;5064348;28;20179;-86
2023/05/25 09:19:46;;;;;;;7.60;4.30;;;;;;;18.44;74.88;95006.25;5059154;28;20555;-87
2023/05/25 09:22:11;;;;;;;3.45;2.90;;;;;;;18.31;74.76;94994.16;5066363;28;20181;-87
2023/05/25 09:24:40;;;;;;;5.15;3.30;;;;;;;18.55;76.81;95039.94;5060297;28;20669;-86
2023/05/25 09:27:06;;;;;;;6.28;4.93;;;;;;;18.51;79.65;95033.47;5058267;28;20192;-86
2023/05/25 09:29:32;;;;;;;10.45;4.72;;;;;;;18.15;79.25;94975.66;5066133;28;20202;-88
2023/05/25 09:31:59;;;;;;;7.18;3.63;;;;;;;18.47;77.44;95037.72;5059460;28;20185;-87
2023/05/25 09:34:32;;;;;;;6.82;3.30;;;;;;;18.15;78.92;94984.44;5063830;28;20178;-88
2023/05/25 09:36:59;;;;;;;5.82;2.72;;;;;;;18.44;78.06;95036.38;5051689;28;20566;-85
2023/05/25 09:39:24;;;;;;;6.55;3.35;;;;;;;18.21;78.78;94986.09;5060353;28;20174;-87
2023/05/25 09:41:50;;;;;;;8.52;4.60;;;;;;;18.27;79.47;94977.06;5065637;28;20186;-87
2023/05/25 09:44:15;;;;;;;7.43;4.28;;;;;;;18.40;82.51;94971.31;5056090;28;20197;-87
2023/05/25 09:46:41;;;;;;;5.70;3.28;;;;;;;18.32;82.56;94949.66;5063691;28;20166;-86
2023/05/25 09:49:08;;;;;;;8.63;4.13;;;;;;;18.69;85.07;94992.31;5065168;28;20604;-88
2023/05/25 09:51:35;;;;;;;5.22;3.50;;;;;;;18.98;87.91;95022.09;5055415;28;20183;-87
2023/05/25 09:54:02;;;;;;;4.65;4.15;;;;;;;18.72;87.87;94941.13;5052546;28;20205;-87
2023/05/25 09:56:30;;;;;;;7.75;4.28;;;;;;;19.34;87.02;95017.72;5052119;28;20674;-88
2023/05/25 09:58:56;;;;;;;6.13;4.00;;;;;;;19.56;86.25;95015.69;5062377;28;20171;-88
2023/05/25 10:01:23;;;;;;;6.95;4.95;;;;;;;19.69;85.50;95015.19;5070370;28;20540;-88
2023/05/25 10:03:49;;;;;;;7.95;5.60;;;;;;;19.77;85.23;94992.50;5053205;28;20190;-89
2023/05/25 10:06:16;;;;;;;20.92;12.63;;;;;;;19.92;85.51;95000.53;5055101;28;20203;-89
2023/05/25 10:08:44;;;;;;;19.50;14.63;;;;;;;20.15;84.27;95009.94;5054999;28;20167;-87
2023/05/25 10:11:12;;;;;;;18.83;14.32;;;;;;;20.12;84.75;94976.50;5052489;28;20325;-89
2023/05/25 10:13:39;;;;;;;7.43;6.28;;;;;;;20.24;82.88;94971.69;5056685;28;20218;-88
2023/05/25 10:16:11;;;;;;;12.90;8.18;;;;;;;20.36;79.39;94960.75;5053541;28;20189;-88
2023/05/25 10:18:42;;;;;;;4.13;3.45;;;;;;;20.38;77.30;94958.63;5051015;28;20209;-89
2023/05/25 10:21:09;;;;;;;5.32;3.88;;;;;;;20.46;77.71;94962.63;5063446;28;20669;-88
2023/05/25 10:23:41;;;;;;;8.15;6.28;;;;;;;20.40;77.70;94932.41;5071017;28;20178;-88
2023/05/25 10:26:07;;;;;;;5.00;4.07;;;;;;;20.56;77.33;94936.66;5065607;28;20175;-89
2023/05/25 10:28:36;;;;;;;10.20;5.28;;;;;;;20.89;73.95;94983.41;5040405;28;20549;-88
2023/05/25 10:31:02;;;;;;;4.40;3.85;;;;;;;21.06;76.16;94991.91;5060537;28;20210;-86
2023/05/25 10:33:28;;;;;;;5.38;3.45;;;;;;;21.08;73.03;94991.66;5067129;28;20181;-85
2023/05/25 10:35:54;;;;;;;5.15;3.22;;;;;;;21.11;73.65;94983.06;5063501;28;20186;-85
2023/05/25 10:38:21;;;;;;;5.63;4.28;;;;;;;21.05;72.59;94981.47;5053266;28;20670;-85
2023/05/25 10:40:49;;;;;;;5.38;4.72;;;;;;;20.85;73.83;94936.03;5066391;28;20170;-84
2023/05/25 10:43:16;;;;;;;7.55;5.85;;;;;;;21.03;76.05;94962.19;5072057;28;20578;-84
2023/05/25 10:45:42;;;;;;;7.50;4.22;;;;;;;20.91;74.44;94937.63;5059516;28;20240;-84
2023/05/25 10:48:08;;;;;;;4.65;3.67;;;;;;;21.00;75.26;94949.38;5063505;28;20183;-84
2023/05/25 10:50:36;;;;;;;14.05;9.40;;;;;;;20.59;75.47;94882.59;5050646;28;20202;-85
2023/05/25 10:53:06;;;;;;;6.53;5.50;;;;;;;20.81;77.63;94911.69;5060357;28;20178;-84
2023/05/25 10:55:50;;;;;;;18.33;11.45;;;;;;;20.99;76.08;94939.75;5047049;28;20689;-84
2023/05/25 10:58:17;;;;;;;7.32;5.53;;;;;;;20.62;75.90;94886.59;5055370;28;20175;-84
2023/05/25 11:00:57;;;;;;;17.92;11.13;;;;;;;20.97;75.85;94939.22;5063572;28;20175;-84
2023/05/25 11:03:42;;;;;;;7.65;4.30;;;;;;;20.91;75.56;94925.06;5058985;28;20202;-85
2023/05/25 11:06:09;;;;;;;9.57;6.93;;;;;;;20.50;76.14;94886.91;5060816;28;20178;-86
2023/05/25 11:08:54;;;;;;;7.93;5.43;;;;;;;20.80;78.19;94925.34;5053498;28;20179;-86
2023/05/25 11:11:21;;;;;;;5.60;4.60;;;;;;;20.36;75.21;94866.34;5053317;28;20218;-86
2023/05/25 11:13:48;;;;;;;7.20;4.85;;;;;;;20.48;75.60;94883.72;5053484;28;20238;-84
2023/05/25 11:16:36;;;;;;;6.00;3.90;;;;;;;20.77;75.76;94921.34;5052849;28;20624;-84
2023/05/25 11:19:02;;;;;;;5.10;4.03;;;;;;;20.76;78.26;94895.66;5052312;28;20249;-83
2023/05/25 11:21:29;;;;;;;7.43;4.10;;;;;;;21.05;78.13;94926.06;5053175;28;20208;-84
2023/05/25 11:23:54;;;;;;;10.23;6.50;;;;;;;21.16;76.74;94934.84;5053248;28;20151;-85
2023/05/25 11:26:21;;;;;;;7.65;3.30;;;;;;;20.92;72.00;94907.91;5053765;28;20170;-87
2023/05/25 11:28:47;;;;;;;8.02;3.85;;;;;;;20.97;74.21;94909.75;5051809;28;20175;-83